createdAt,value
2023-05-25T00:01:14.341Z,7.00
2023-05-25T00:03:42.634Z,7.50
2023-05-25T00:06:10.459Z,7.90
2023-05-25T00:08:40.413Z,8.60
2023-05-25T00:11:08.063Z,8.50
2023-05-25T00:13:35.553Z,7.50
2023-05-25T00:16:03.113Z,7.50
2023-05-25T00:18:33.244Z,7.60
2023-05-25T00:21:05.973Z,8.30
2023-05-25T00:23:33.596Z,7.60
2023-05-25T00:26:03.723Z,7.70
2023-05-25T00:28:31.168Z,7.90
2023-05-25T00:30:59.010Z,8.00
2023-05-25T00:33:45.078Z,10.40
2023-05-25T00:36:15.488Z,11.30
2023-05-25T00:38:43.916Z,12.50
2023-05-25T00:41:12.928Z,11.20
2023-05-25T00:43:40.465Z,9.50
2023-05-25T00:46:07.972Z,9.20
2023-05-25T00:48:35.544Z,8.60
2023-05-25T00:51:05.559Z,9.00
2023-05-25T00:53:33.927Z,9.70
2023-05-25T00:56:12.228Z,9.00
2023-05-25T00:58:39.878Z,9.60
2023-05-25T01:01:11.968Z,9.20
2023-05-25T01:03:40.247Z,6.80
2023-05-25T01:06:08.162Z,7.60
2023-05-25T01:08:35.646Z,7.10
2023-05-25T01:11:03.457Z,6.80
2023-05-25T01:13:31.035Z,7.60
2023-05-25T01:15:58.605Z,7.40
2023-05-25T01:18:26.165Z,7.90
2023-05-25T01:20:53.648Z,7.20
2023-05-25T01:23:23.617Z,6.70
2023-05-25T01:25:52.112Z,7.40
2023-05-25T01:28:23.577Z,6.80
2023-05-25T01:30:51.168Z,6.70
2023-05-25T01:33:19.156Z,5.90
2023-05-25T01:35:47.361Z,5.60
2023-05-25T01:38:14.845Z,5.70
2023-05-25T01:40:42.268Z,5.40
2023-05-25T01:43:09.793Z,5.40
2023-05-25T01:45:37.364Z,4.80
2023-05-25T01:48:16.569Z,5.20
2023-05-25T01:50:48.569Z,5.90
2023-05-25T01:53:19.848Z,5.90
2023-05-25T01:55:48.254Z,5.30
2023-05-25T01:58:16.231Z,6.80
2023-05-25T02:00:43.734Z,6.70
2023-05-25T02:03:12.392Z,6.30
2023-05-25T02:05:41.458Z,5.50
2023-05-25T02:08:09.029Z,6.20
2023-05-25T02:10:36.474Z,5.90
2023-05-25T02:13:03.993Z,7.00
2023-05-25T02:15:31.910Z,7.30
2023-05-25T02:18:01.031Z,9.10
2023-05-25T02:20:30.922Z,10.80
2023-05-25T02:22:58.470Z,10.60
2023-05-25T02:25:25.984Z,7.00
2023-05-25T02:27:53.460Z,6.20
2023-05-25T02:30:21.348Z,6.30
2023-05-25T02:32:48.821Z,5.30
2023-05-25T02:35:16.451Z,6.80
2023-05-25T02:37:43.946Z,6.50
2023-05-25T02:40:11.586Z,6.20
2023-05-25T02:42:39.039Z,6.20
2023-05-25T02:45:10.655Z,6.60
2023-05-25T02:47:38.438Z,6.70
2023-05-25T02:50:06.292Z,6.70
2023-05-25T02:52:37.677Z,7.80
2023-05-25T02:55:06.140Z,9.50
2023-05-25T02:57:40.283Z,14.80
2023-05-25T03:00:08.730Z,18.00
2023-05-25T03:02:36.462Z,14.80
2023-05-25T03:05:04.721Z,15.20
2023-05-25T03:07:32.740Z,15.40
2023-05-25T03:10:00.217Z,16.20
2023-05-25T03:12:27.831Z,17.00
2023-05-25T03:14:55.537Z,16.50
2023-05-25T03:17:23.133Z,16.90
2023-05-25T03:19:51.008Z,14.20
2023-05-25T03:22:18.766Z,13.70
2023-05-25T03:24:46.761Z,13.30
2023-05-25T03:27:14.927Z,14.30
2023-05-25T03:29:42.532Z,13.80
2023-05-25T03:32:10.227Z,13.90
2023-05-25T03:34:38.090Z,13.00
2023-05-25T03:37:06.137Z,11.30
2023-05-25T03:39:33.700Z,14.20
2023-05-25T03:42:01.731Z,14.60
2023-05-25T03:44:29.420Z,15.80
2023-05-25T03:46:56.893Z,16.20
2023-05-25T03:49:24.421Z,16.50
2023-05-25T03:51:51.928Z,15.50
2023-05-25T03:54:19.438Z,15.20
2023-05-25T03:56:48.620Z,14.80
2023-05-25T03:59:16.127Z,15.80
2023-05-25T04:01:43.608Z,16.80
2023-05-25T04:04:11.266Z,16.20
2023-05-25T04:06:39.295Z,14.70
2023-05-25T04:09:07.898Z,13.90
2023-05-25T04:11:35.462Z,14.90
2023-05-25T04:14:03.018Z,13.10
2023-05-25T04:16:34.037Z,11.80
2023-05-25T04:19:02.676Z,10.70
2023-05-25T04:21:30.142Z,10.70
2023-05-25T04:23:57.611Z,10.70
2023-05-25T04:26:26.667Z,11.40
2023-05-25T04:28:57.660Z,13.60
2023-05-25T04:31:46.030Z,12.80
2023-05-25T04:34:15.220Z,12.30
2023-05-25T04:36:55.248Z,14.10
2023-05-25T04:39:22.854Z,14.50
2023-05-25T04:41:53.826Z,12.40
2023-05-25T04:44:21.399Z,13.80
2023-05-25T04:46:52.402Z,12.50
2023-05-25T04:49:26.684Z,11.60
2023-05-25T04:51:54.440Z,11.50
2023-05-25T04:56:32.786Z,12.00
2023-05-25T04:59:00.750Z,12.70
2023-05-25T05:01:29.373Z,12.40
2023-05-25T05:04:00.652Z,12.60
2023-05-25T05:06:28.208Z,11.10
2023-05-25T05:08:56.190Z,12.20
2023-05-25T05:11:23.930Z,11.80
2023-05-25T05:13:52.333Z,13.00
2023-05-25T05:16:19.833Z,12.40
2023-05-25T05:18:48.524Z,12.40
2023-05-25T05:21:16.150Z,13.00
2023-05-25T05:23:43.852Z,12.20
2023-05-25T05:26:11.867Z,13.30
2023-05-25T05:28:39.513Z,12.70
2023-05-25T05:31:07.668Z,12.00
2023-05-25T05:33:35.781Z,12.00
2023-05-25T05:36:04.906Z,13.00
2023-05-25T05:38:32.629Z,12.50
2023-05-25T05:41:00.317Z,14.20
2023-05-25T05:43:28.082Z,17.60
2023-05-25T05:45:55.602Z,18.60
2023-05-25T05:48:23.157Z,18.30
2023-05-25T05:50:52.632Z,15.00
2023-05-25T05:53:21.004Z,14.10
2023-05-25T05:55:50.386Z,15.50
2023-05-25T05:58:19.245Z,14.70
2023-05-25T06:00:46.685Z,14.10
2023-05-25T06:03:14.316Z,18.10
2023-05-25T06:05:42.540Z,18.70
2023-05-25T06:08:10.479Z,16.40
2023-05-25T06:10:38.586Z,15.30
2023-05-25T06:13:07.980Z,16.00
2023-05-25T06:15:35.961Z,15.90
2023-05-25T06:18:09.505Z,15.70
2023-05-25T06:20:37.117Z,15.20
2023-05-25T06:23:04.621Z,13.30
2023-05-25T06:25:32.193Z,12.90
2023-05-25T06:27:59.704Z,12.80
2023-05-25T06:30:27.181Z,12.90
2023-05-25T06:32:55.205Z,12.20
2023-05-25T06:35:23.269Z,12.10
2023-05-25T06:37:51.731Z,11.30
2023-05-25T06:40:20.025Z,11.20
2023-05-25T06:42:47.552Z,11.30
2023-05-25T06:45:47.757Z,12.00
2023-05-25T06:48:15.606Z,10.50
2023-05-25T06:50:43.189Z,10.20
2023-05-25T06:53:11.427Z,10.00
2023-05-25T06:55:38.965Z,10.40
2023-05-25T06:58:06.455Z,9.80
2023-05-25T07:00:33.978Z,9.90
2023-05-25T07:03:01.624Z,9.00
2023-05-25T07:05:29.314Z,7.50
2023-05-25T07:07:56.943Z,17.70
2023-05-25T07:10:24.455Z,19.80
2023-05-25T07:12:52.570Z,6.10
2023-05-25T07:15:21.829Z,5.70
2023-05-25T07:17:50.180Z,5.60
2023-05-25T07:20:17.799Z,5.50
2023-05-25T07:22:47.099Z,6.10
2023-05-25T07:25:14.696Z,5.90
2023-05-25T07:27:42.928Z,6.10
2023-05-25T07:30:11.076Z,6.00
2023-05-25T07:32:38.719Z,6.50
2023-05-25T07:35:06.661Z,6.60
2023-05-25T07:37:34.240Z,15.90
2023-05-25T07:40:01.727Z,5.80
2023-05-25T07:42:34.681Z,11.60
2023-05-25T07:45:02.468Z,6.60
2023-05-25T07:47:30.118Z,5.70
2023-05-25T07:49:57.729Z,5.60
2023-05-25T07:52:25.269Z,4.50
2023-05-25T07:54:52.901Z,5.20
2023-05-25T07:57:20.533Z,4.40
2023-05-25T07:59:48.050Z,4.30
2023-05-25T08:02:15.687Z,4.60
2023-05-25T08:04:43.402Z,4.20
2023-05-25T08:07:11.432Z,6.10
2023-05-25T08:09:39.031Z,5.40
2023-05-25T08:12:24.591Z,4.30
2023-05-25T08:14:54.481Z,4.60
2023-05-25T08:17:22.184Z,4.40
2023-05-25T08:19:49.773Z,4.30
2023-05-25T08:22:17.313Z,5.40
2023-05-25T08:24:44.899Z,4.40
2023-05-25T08:27:12.382Z,4.20
2023-05-25T08:29:39.866Z,3.70
2023-05-25T08:32:07.851Z,4.00
2023-05-25T08:34:35.306Z,3.90
2023-05-25T08:37:02.848Z,3.80
2023-05-25T08:39:31.149Z,3.90
2023-05-25T08:41:59.804Z,4.50
2023-05-25T08:44:27.541Z,4.30
2023-05-25T08:46:56.373Z,3.70
2023-05-25T08:49:23.986Z,3.50
2023-05-25T08:51:52.215Z,3.60
2023-05-25T08:54:20.434Z,4.20
2023-05-25T08:56:55.616Z,3.80
2023-05-25T08:59:42.512Z,4.30
2023-05-25T09:02:13.266Z,6.00
2023-05-25T09:04:40.912Z,4.00
2023-05-25T09:07:10.805Z,5.40
2023-05-25T09:09:39.729Z,3.20
2023-05-25T09:12:07.766Z,3.60
2023-05-25T09:14:35.411Z,3.40
2023-05-25T09:17:02.879Z,3.70
2023-05-25T09:19:30.356Z,4.80
2023-05-25T09:22:10.662Z,3.90
2023-05-25T09:24:44.292Z,9.70
2023-05-25T09:27:12.428Z,4.30
2023-05-25T09:29:39.891Z,4.40
2023-05-25T09:32:07.774Z,4.80
2023-05-25T09:34:35.458Z,3.90
2023-05-25T09:37:13.797Z,4.30
2023-05-25T09:39:42.033Z,4.10
2023-05-25T09:42:10.282Z,3.70
2023-05-25T09:44:38.034Z,3.90
2023-05-25T09:47:05.753Z,4.10
2023-05-25T09:49:33.366Z,3.50
2023-05-25T09:52:01.279Z,5.70
2023-05-25T09:54:28.876Z,4.30
2023-05-25T09:56:56.354Z,4.10
2023-05-25T09:59:23.899Z,4.10
2023-05-25T10:01:52.600Z,4.20
2023-05-25T10:04:20.204Z,4.10
2023-05-25T10:06:49.821Z,3.80
2023-05-25T10:09:18.586Z,3.80
2023-05-25T10:11:46.301Z,3.90
2023-05-25T10:14:14.895Z,3.50
2023-05-25T10:16:42.761Z,3.70
2023-05-25T10:19:17.742Z,4.00
2023-05-25T10:21:51.737Z,21.20
2023-05-25T10:24:24.621Z,4.10
2023-05-25T10:26:54.109Z,4.30
2023-05-25T10:29:21.639Z,4.20
2023-05-25T10:31:49.278Z,4.00
2023-05-25T10:34:17.438Z,3.40
2023-05-25T10:36:44.923Z,3.90
2023-05-25T10:39:12.424Z,4.00
2023-05-25T10:41:39.964Z,4.00
2023-05-25T10:44:07.860Z,4.40
2023-05-25T10:46:35.418Z,8.70
2023-05-25T10:49:35.787Z,9.50
2023-05-25T10:52:06.402Z,14.40
2023-05-25T10:54:35.006Z,20.10
2023-05-25T10:57:28.789Z,24.30
2023-05-25T11:00:01.161Z,27.90
2023-05-25T11:02:28.846Z,34.00
2023-05-25T11:05:15.355Z,36.50
2023-05-25T11:07:55.758Z,43.70
2023-05-25T11:10:43.780Z,43.10
2023-05-25T11:13:23.533Z,42.40
2023-05-25T11:16:15.102Z,46.00
2023-05-25T11:18:43.936Z,50.90
2023-05-25T11:21:16.499Z,48.20
2023-05-25T11:23:53.673Z,52.20
2023-05-25T11:26:25.311Z,50.60
2023-05-25T11:28:53.268Z,53.30
2023-05-25T11:31:23.624Z,52.30
2023-05-25T11:33:54.803Z,69.00
2023-05-25T11:36:22.235Z,59.40
2023-05-25T11:39:02.470Z,67.10
2023-05-25T11:41:34.078Z,71.10
2023-05-25T11:44:07.021Z,60.90
2023-05-25T11:46:35.155Z,62.80
2023-05-25T11:49:02.911Z,61.40
2023-05-25T11:51:31.566Z,65.50
2023-05-25T11:53:59.074Z,72.30
2023-05-25T11:56:35.153Z,69.40
2023-05-25T11:59:03.323Z,73.90
2023-05-25T12:01:32.181Z,75.40
2023-05-25T12:04:01.937Z,71.60
2023-05-25T12:06:30.139Z,50.90
2023-05-25T12:08:57.880Z,46.10
2023-05-25T12:11:29.194Z,47.50
2023-05-25T12:13:56.770Z,41.80
2023-05-25T12:16:24.413Z,42.10
2023-05-25T12:18:52.115Z,38.40
2023-05-25T12:21:20.123Z,33.80
2023-05-25T12:23:47.983Z,27.60
2023-05-25T12:26:16.401Z,26.20
2023-05-25T12:29:02.824Z,28.90
2023-05-25T12:31:30.891Z,29.40
2023-05-25T12:34:07.830Z,28.80
2023-05-25T12:36:41.794Z,29.70
2023-05-25T12:39:10.002Z,27.40
2023-05-25T12:41:51.826Z,116.90
2023-05-25T12:44:26.464Z,33.00
2023-05-25T12:46:54.553Z,25.60
2023-05-25T12:49:29.349Z,27.80
2023-05-25T12:51:57.187Z,25.50
2023-05-25T12:54:33.876Z,30.20
2023-05-25T12:57:02.745Z,27.70
2023-05-25T12:59:31.131Z,24.80
2023-05-25T13:01:58.657Z,21.50
2023-05-25T13:04:26.394Z,21.40
2023-05-25T13:06:54.209Z,20.10
2023-05-25T13:09:28.300Z,20.70
2023-05-25T13:11:56.060Z,17.90
2023-05-25T13:14:23.947Z,19.00
2023-05-25T13:16:51.722Z,80.20
2023-05-25T13:19:20.572Z,18.80
2023-05-25T13:21:49.489Z,17.20
2023-05-25T13:24:17.080Z,16.50
2023-05-25T13:26:46.471Z,16.90
2023-05-25T13:29:15.195Z,16.70
2023-05-25T13:31:43.412Z,16.20
2023-05-25T13:34:11.032Z,16.30
2023-05-25T13:36:38.616Z,15.20
2023-05-25T13:39:06.147Z,12.30
2023-05-25T13:41:33.655Z,13.20
2023-05-25T13:44:01.174Z,13.30
2023-05-25T13:46:34.627Z,13.70
2023-05-25T13:49:03.655Z,12.80
2023-05-25T13:51:31.514Z,13.80
2023-05-25T13:53:59.043Z,11.80
2023-05-25T13:56:27.516Z,11.40
2023-05-25T13:58:55.110Z,10.70
2023-05-25T14:01:22.704Z,9.70
2023-05-25T14:03:50.385Z,9.60
2023-05-25T14:06:18.086Z,9.10
2023-05-25T14:08:45.577Z,9.40
2023-05-25T14:11:13.065Z,9.50
2023-05-25T14:13:40.533Z,8.90
2023-05-25T14:16:08.075Z,8.70
2023-05-25T14:18:35.649Z,9.10
2023-05-25T14:21:03.318Z,8.50
2023-05-25T14:23:31.438Z,9.90
2023-05-25T14:25:58.946Z,10.30
2023-05-25T14:28:26.604Z,9.00
2023-05-25T14:30:54.965Z,9.00
2023-05-25T14:33:22.499Z,9.50
2023-05-25T14:35:50.289Z,9.40
2023-05-25T14:38:18.205Z,9.80
2023-05-25T14:40:45.748Z,8.90
2023-05-25T14:43:13.282Z,9.10
2023-05-25T14:45:40.797Z,8.50
2023-05-25T14:50:44.560Z,7.40
2023-05-25T14:53:12.363Z,7.90
2023-05-25T14:55:41.220Z,8.20
2023-05-25T14:58:08.754Z,7.00
2023-05-25T15:00:36.346Z,7.40
2023-05-25T15:03:04.009Z,7.10
2023-05-25T15:05:31.588Z,5.90
2023-05-25T15:07:59.280Z,6.10
2023-05-25T15:10:26.763Z,6.30
2023-05-25T15:12:54.288Z,5.60
2023-05-25T15:15:21.784Z,5.60
2023-05-25T15:17:52.180Z,5.90
2023-05-25T15:20:20.633Z,5.70
2023-05-25T15:22:48.228Z,5.50
2023-05-25T15:25:24.601Z,5.60
2023-05-25T15:27:59.034Z,5.40
2023-05-25T15:30:27.928Z,5.40
2023-05-25T15:32:55.604Z,4.60
2023-05-25T15:35:23.236Z,4.80
2023-05-25T15:37:50.733Z,4.50
2023-05-25T15:40:18.172Z,3.70
2023-05-25T15:42:46.101Z,3.50
2023-05-25T15:45:13.621Z,3.50
2023-05-25T15:47:41.419Z,3.60
2023-05-25T15:50:09.161Z,3.20
2023-05-25T15:52:36.588Z,3.30
2023-05-25T15:55:04.213Z,3.40
2023-05-25T15:57:31.852Z,3.80
2023-05-25T15:59:59.416Z,3.60
2023-05-25T16:02:27.227Z,3.90
2023-05-25T16:04:54.876Z,3.40
2023-05-25T16:07:22.420Z,3.70
2023-05-25T16:09:49.883Z,3.80
2023-05-25T16:12:17.474Z,3.10
2023-05-25T16:14:44.944Z,3.20
2023-05-25T16:17:12.455Z,3.80
2023-05-25T16:19:40.155Z,3.60
2023-05-25T16:22:07.826Z,3.90
2023-05-25T16:24:35.268Z,3.80
2023-05-25T16:27:02.909Z,3.90
2023-05-25T16:29:30.437Z,3.60
2023-05-25T16:31:58.005Z,4.10
2023-05-25T16:34:26.191Z,3.80
2023-05-25T16:36:53.667Z,4.10
2023-05-25T16:39:21.650Z,3.90
2023-05-25T16:41:50.882Z,3.60
2023-05-25T16:44:18.535Z,3.50
2023-05-25T16:46:46.580Z,4.00
2023-05-25T16:49:14.542Z,4.20
2023-05-25T16:51:48.996Z,3.90
2023-05-25T16:54:17.108Z,3.60
2023-05-25T16:56:44.687Z,4.50
2023-05-25T16:59:12.216Z,4.20
2023-05-25T17:01:39.903Z,4.20
2023-05-25T17:04:07.536Z,4.30
2023-05-25T17:06:35.308Z,4.00
2023-05-25T17:09:04.533Z,4.30
2023-05-25T17:14:30.921Z,6.10
2023-05-25T17:16:57.898Z,4.70
2023-05-25T17:19:25.158Z,4.40
2023-05-25T17:21:52.379Z,5.10
2023-05-25T17:24:19.299Z,4.90
2023-05-25T17:26:48.825Z,5.50
2023-05-25T17:29:16.072Z,5.70
2023-05-25T17:31:43.198Z,5.10
2023-05-25T17:34:10.003Z,5.40
2023-05-25T17:36:37.020Z,5.80
2023-05-25T17:39:05.007Z,5.60
2023-05-25T17:41:32.571Z,5.70
2023-05-25T17:43:59.714Z,5.90
2023-05-25T17:46:26.745Z,5.90
2023-05-25T17:48:53.724Z,5.60
2023-05-25T17:51:20.640Z,6.90
2023-05-25T17:53:47.959Z,6.30
2023-05-25T17:56:16.012Z,5.60
2023-05-25T17:58:46.846Z,5.10
2023-05-25T18:01:14.443Z,5.30
2023-05-25T18:03:42.588Z,5.70
2023-05-25T18:06:09.693Z,5.20
2023-05-25T18:08:38.195Z,5.50
2023-05-25T18:11:05.506Z,6.00
2023-05-25T18:13:33.378Z,5.80
2023-05-25T18:16:00.290Z,6.70
2023-05-25T18:18:27.401Z,6.40
2023-05-25T18:20:54.253Z,6.50
2023-05-25T18:23:21.819Z,6.30
2023-05-25T18:25:48.660Z,7.20
2023-05-25T18:28:15.645Z,6.20
2023-05-25T18:30:42.804Z,6.40
2023-05-25T18:33:10.136Z,6.70
2023-05-25T18:35:37.660Z,8.60
2023-05-25T18:38:04.754Z,9.50
2023-05-25T18:40:31.841Z,9.30
2023-05-25T18:42:58.889Z,7.70
2023-05-25T18:45:25.851Z,7.80
2023-05-25T18:47:52.889Z,8.00
2023-05-25T18:50:20.153Z,8.00
2023-05-25T18:52:50.922Z,8.60
2023-05-25T18:55:19.575Z,8.20
2023-05-25T18:57:47.165Z,8.20
2023-05-25T19:00:14.217Z,8.30
2023-05-25T19:02:41.282Z,8.10
2023-05-25T19:05:10.931Z,8.10
2023-05-25T19:07:54.718Z,7.50
2023-05-25T19:10:25.588Z,7.90
2023-05-25T19:12:53.208Z,7.90
2023-05-25T19:15:20.160Z,8.40
2023-05-25T19:17:47.524Z,8.70
2023-05-25T19:20:14.480Z,8.40
2023-05-25T19:22:42.088Z,8.30
2023-05-25T19:25:09.131Z,9.10
2023-05-25T19:27:36.356Z,7.70
2023-05-25T19:30:03.460Z,8.40
2023-05-25T19:32:31.020Z,9.00
2023-05-25T19:34:57.914Z,8.90
2023-05-25T19:37:25.242Z,8.90
2023-05-25T19:39:52.180Z,9.20
2023-05-25T19:42:19.194Z,8.60
2023-05-25T19:44:46.000Z,8.80
2023-05-25T19:47:12.938Z,7.80
2023-05-25T19:49:40.158Z,8.50
2023-05-25T19:52:07.143Z,10.50
2023-05-25T19:54:34.586Z,14.40
2023-05-25T19:57:02.267Z,10.30
2023-05-25T19:59:30.515Z,11.20
2023-05-25T20:01:57.414Z,10.20
2023-05-25T20:04:24.576Z,9.70
2023-05-25T20:06:51.822Z,10.10
2023-05-25T20:09:19.142Z,11.60
2023-05-25T20:11:46.024Z,13.10
2023-05-25T20:14:12.829Z,13.70
2023-05-25T20:16:40.072Z,14.50
2023-05-25T20:19:07.125Z,14.20
2023-05-25T20:21:34.389Z,15.80
2023-05-25T20:24:01.318Z,15.20
2023-05-25T20:26:28.495Z,15.00
2023-05-25T20:28:55.662Z,13.30
2023-05-25T20:31:23.696Z,13.60
2023-05-25T20:33:50.671Z,11.80
2023-05-25T20:36:17.601Z,11.60
2023-05-25T20:38:45.083Z,10.60
2023-05-25T20:41:12.235Z,10.60
2023-05-25T20:43:39.396Z,10.20
2023-05-25T20:46:07.325Z,9.80
2023-05-25T20:48:35.605Z,9.50
2023-05-25T20:51:02.496Z,9.90
2023-05-25T20:53:29.688Z,9.10
2023-05-25T20:55:56.699Z,8.90
2023-05-25T20:58:23.474Z,9.20
2023-05-25T21:00:50.679Z,9.60
2023-05-25T21:03:18.289Z,10.90
2023-05-25T21:05:45.663Z,9.30
2023-05-25T21:08:12.986Z,9.50
2023-05-25T21:13:22.611Z,9.10
2023-05-25T21:15:49.582Z,9.60
2023-05-25T21:18:16.405Z,8.70
2023-05-25T21:20:43.392Z,9.40
2023-05-25T21:23:10.273Z,9.00
2023-05-25T21:25:37.305Z,8.40
2023-05-25T21:28:04.263Z,8.30
2023-05-25T21:30:31.114Z,9.30
2023-05-25T21:32:57.890Z,9.10
2023-05-25T21:35:25.321Z,9.20
2023-05-25T21:37:52.289Z,9.00
2023-05-25T21:40:19.105Z,9.40
2023-05-25T21:42:45.967Z,9.40
2023-05-25T21:45:12.716Z,8.40
2023-05-25T21:47:39.574Z,9.10
2023-05-25T21:50:06.549Z,9.00
2023-05-25T21:52:33.473Z,8.40
2023-05-25T21:55:00.285Z,8.50
2023-05-25T21:57:27.174Z,8.40
2023-05-25T21:59:53.991Z,8.60
2023-05-25T22:02:20.834Z,8.90
2023-05-25T22:04:47.735Z,8.50
2023-05-25T22:07:14.490Z,8.80
2023-05-25T22:09:41.220Z,9.30
2023-05-25T22:12:09.834Z,9.00
2023-05-25T22:14:36.847Z,9.30
2023-05-25T22:17:03.798Z,9.60
2023-05-25T22:19:31.125Z,10.10
2023-05-25T22:21:57.901Z,10.60
2023-05-25T22:24:24.784Z,10.10
2023-05-25T22:26:51.607Z,10.70
2023-05-25T22:29:18.316Z,9.90
2023-05-25T22:31:45.267Z,9.80
2023-05-25T22:34:12.342Z,10.00
2023-05-25T22:36:39.127Z,10.10
2023-05-25T22:39:05.909Z,10.60
2023-05-25T22:41:32.717Z,10.10
2023-05-25T22:43:59.862Z,10.60
2023-05-25T22:46:26.676Z,10.30
2023-05-25T22:48:53.592Z,9.60
2023-05-25T22:51:21.250Z,10.10
2023-05-25T22:53:47.979Z,10.60
2023-05-25T22:56:15.487Z,10.40
2023-05-25T22:58:42.344Z,11.00
2023-05-25T23:01:09.124Z,10.70
2023-05-25T23:03:36.374Z,11.00
2023-05-25T23:06:03.102Z,11.90
2023-05-25T23:08:30.727Z,13.10
2023-05-25T23:10:57.579Z,12.30
2023-05-25T23:13:24.501Z,12.50
2023-05-25T23:15:51.326Z,13.30
2023-05-25T23:18:18.289Z,14.00
2023-05-25T23:20:45.175Z,13.80
2023-05-25T23:23:12.166Z,12.90
2023-05-25T23:25:38.897Z,15.10
2023-05-25T23:28:05.725Z,15.40
2023-05-25T23:30:32.722Z,15.30
2023-05-25T23:33:00.270Z,14.90
2023-05-25T23:35:27.130Z,15.20
2023-05-25T23:37:54.176Z,15.00
2023-05-25T23:40:21.052Z,14.90
2023-05-25T23:42:47.790Z,14.00
2023-05-25T23:45:14.537Z,14.70
2023-05-25T23:47:41.629Z,15.30
2023-05-25T23:50:08.739Z,14.00
2023-05-25T23:52:35.644Z,13.70
2023-05-25T23:55:02.489Z,14.50
2023-05-25T23:57:29.319Z,12.30
2023-05-25T23:59:56.053Z,11.90
